Airfield :
LOGIN :

Register | Disclaimer

   EN    FR    IT 

 










Legend :    VFR   Marginal VFR   IFR   Intensive IFR   Very Intensive IFR
Visi :
Ceiling :
>= 8 km
>= 3000ft
5 to 8 km
1000 to 3000 ft
1500m to 5 km
500 to 1000 ft
800 to 1500m
200 to 500 ft
< 800m
< 200 ft
Symbols :   Thunderstorms  Fog  Heavy snow  Heavy precipitations  Wind > 20 kt
SIGMETs :     Misc.  Thunderstorms  Icing  Turbulence  Mountain Waves  Volcanic Ashes







- Airport Elevation : 461 ft
- IATA code : WIE


ETOU - Wiesbaden Army

CURRENT METAR :
  • 200256Z AUTO 00000KT 9999 CLR 15/13 A3010 RMK AO2 SLP190 T01540129 55001 $

EXPIRED METARs :
  • 200156Z AUTO 00000KT 9999 CLR 16/13 A3010 RMK AO2 SLP189 T01620129 $
  • 200056Z AUTO 31003KT 9999 CLR 17/13 A3010 RMK AO2 SLP189 T01680127 $

TAF TAF ETOU
Valid from the 20 at 03:00 until the 21 at 09:00 UTC


200306Z 2003/2109 21006KT 9999 FEW200 QNH3006INS
BECMG 2009/2010 21012KT 9999 FEW050 FEW200 QNH2989INS
BECMG 2023/2024 24006KT 9999 SCT050 BKN200 QNH2983INS
BECMG 2107/2108 27010G15KT 9999 FEW015 BKN050 QNH2979INS TX26/2015Z TN12/2005Z
No reported NOTAMs for that airfield.



MET'MAP, your aeronautical weather chart ! - Copyright ORBIFLY December 2007 - Disclaimer

ORBIFLY MET'MAP TEAM :

Programming & Development : Alexandra Zaïnal
Concept & Development : Baudouin d'Aumeries
Co-Development & Prog : Marc-Olivier Méhu
Technical & hardware support : Manuel Goepfert

Contact : metmap@orbifly.com




SOURCES & CREDITS :

   NOAA